createdAt,value
2018-11-21T00:02:17.494Z,8.40
2018-11-21T00:07:52.293Z,9.40
2018-11-21T00:10:42.525Z,9.30
2018-11-21T00:13:33.221Z,9.73
2018-11-21T00:16:23.446Z,11.00
2018-11-21T00:21:55.481Z,8.60
2018-11-21T00:25:04.319Z,9.40
2018-11-21T00:27:55.516Z,8.83
2018-11-21T00:30:45.741Z,9.00
2018-11-21T00:33:35.990Z,9.07
2018-11-21T00:36:26.646Z,10.80
2018-11-21T00:39:30.449Z,9.90
2018-11-21T00:42:07.318Z,10.30
2018-11-21T00:47:39.071Z,10.73
2018-11-21T00:50:29.296Z,10.03
2018-11-21T00:53:19.539Z,9.57
2018-11-21T00:55:50.110Z,9.50
2018-11-21T00:58:20.657Z,10.73
2018-11-21T01:01:10.937Z,9.90
2018-11-21T01:04:01.174Z,10.00
2018-11-21T01:06:51.399Z,9.73
2018-11-21T01:09:42.049Z,10.90
2018-11-21T01:12:32.315Z,10.47
2018-11-21T01:15:22.538Z,9.03
2018-11-21T01:18:12.791Z,8.60
2018-11-21T01:24:08.857Z,10.87
2018-11-21T01:26:59.129Z,10.80
2018-11-21T01:29:50.142Z,10.80
2018-11-21T01:36:05.377Z,10.73
2018-11-21T01:38:58.461Z,10.70
2018-11-21T01:41:48.684Z,10.30
2018-11-21T01:44:21.932Z,10.77
2018-11-21T01:47:12.139Z,11.60
2018-11-21T01:50:02.414Z,11.80
2018-11-21T01:55:54.119Z,12.40
2018-11-21T02:01:26.685Z,12.77
2018-11-21T02:04:20.135Z,12.53
2018-11-21T02:10:11.312Z,12.23
2018-11-21T02:13:01.692Z,12.47
2018-11-21T02:15:51.886Z,12.00
2018-11-21T02:18:55.533Z,12.97
2018-11-21T02:22:07.517Z,10.73
2018-11-21T02:25:16.547Z,12.13
2018-11-21T02:31:35.915Z,11.40
2018-11-21T02:34:42.275Z,18.20
2018-11-21T02:38:01.330Z,16.50
2018-11-21T02:41:15.258Z,15.90
2018-11-21T02:44:46.790Z,15.53
2018-11-21T02:51:26.632Z,12.93
2018-11-21T02:54:41.232Z,14.20
2018-11-21T03:03:40.929Z,13.17
2018-11-21T03:06:31.153Z,12.87
2018-11-21T03:15:04.365Z,11.90
2018-11-21T03:17:54.960Z,12.53
2018-11-21T03:26:42.402Z,12.30
2018-11-21T03:31:54.608Z,10.47
2018-11-21T03:34:56.029Z,11.07
2018-11-21T03:37:28.584Z,10.00
2018-11-21T03:40:18.804Z,12.17
2018-11-21T03:43:09.138Z,11.77
2018-11-21T03:46:18.236Z,11.97
2018-11-21T03:49:08.529Z,10.97
2018-11-21T03:51:58.749Z,10.90
2018-11-21T03:54:48.984Z,10.40
2018-11-21T03:57:58.076Z,10.60
2018-11-21T04:00:48.353Z,9.20
2018-11-21T04:03:18.886Z,10.30
2018-11-21T04:05:49.484Z,10.20
2018-11-21T04:08:42.676Z,8.93
2018-11-21T04:11:29.912Z,9.97
2018-11-21T04:17:07.844Z,9.67
2018-11-21T04:22:20.184Z,9.10
2018-11-21T04:25:29.309Z,8.37
2018-11-21T04:28:19.580Z,7.97
2018-11-21T04:31:09.848Z,8.50
2018-11-21T04:34:01.093Z,7.80
2018-11-21T04:36:51.349Z,9.27
2018-11-21T04:39:41.577Z,9.63
2018-11-21T04:42:32.773Z,7.57
2018-11-21T04:48:05.407Z,6.87
2018-11-21T04:50:55.627Z,7.40
2018-11-21T04:53:45.842Z,7.70
2018-11-21T04:56:54.727Z,6.77
2018-11-21T05:05:31.984Z,6.80
2018-11-21T05:08:22.235Z,6.00
2018-11-21T05:13:54.791Z,6.70
2018-11-21T05:16:46.043Z,9.63
2018-11-21T05:19:36.282Z,9.60
2018-11-21T05:22:26.496Z,10.30
2018-11-21T05:31:12.815Z,8.40
2018-11-21T05:34:03.524Z,7.20
2018-11-21T05:36:53.762Z,8.97
2018-11-21T05:39:44.029Z,8.30
2018-11-21T05:42:34.269Z,8.20
2018-11-21T05:45:24.519Z,9.30
2018-11-21T05:47:55.092Z,9.33
2018-11-21T05:50:25.661Z,7.80
2018-11-21T05:53:15.924Z,7.87
2018-11-21T05:56:06.236Z,6.23
2018-11-21T05:59:07.901Z,6.30
2018-11-21T06:01:58.556Z,5.17
2018-11-21T06:07:52.832Z,5.03
2018-11-21T06:10:55.405Z,4.27
2018-11-21T06:13:27.775Z,5.00
2018-11-21T06:19:01.852Z,7.50
2018-11-21T06:21:52.437Z,8.77
2018-11-21T06:27:25.742Z,7.70
2018-11-21T06:32:39.002Z,8.43
2018-11-21T06:35:29.285Z,8.37
2018-11-21T06:38:19.583Z,8.37
2018-11-21T06:41:09.791Z,7.70
2018-11-21T06:44:00.017Z,7.63
2018-11-21T06:46:50.272Z,6.90
2018-11-21T06:49:41.003Z,8.60
2018-11-21T06:52:31.224Z,7.37
2018-11-21T06:58:03.987Z,7.93
2018-11-21T07:00:54.224Z,8.07
2018-11-21T07:03:45.103Z,7.13
2018-11-21T07:09:18.268Z,7.50
2018-11-21T07:12:08.483Z,6.50
2018-11-21T07:18:05.718Z,6.37
2018-11-21T07:23:39.338Z,5.03
2018-11-21T07:26:29.744Z,4.63
2018-11-21T07:29:21.264Z,4.77
2018-11-21T07:32:11.538Z,4.00
2018-11-21T07:34:42.110Z,4.97
2018-11-21T07:37:31.267Z,4.93
2018-11-21T07:45:49.110Z,6.80
2018-11-21T07:51:22.093Z,7.53
2018-11-21T07:57:52.007Z,10.97
2018-11-21T08:03:53.279Z,6.23
2018-11-21T08:07:02.516Z,6.83
2018-11-21T08:10:11.774Z,5.63
2018-11-21T08:13:20.606Z,6.40
2018-11-21T08:16:29.979Z,6.17
2018-11-21T08:19:41.717Z,6.53
2018-11-21T08:22:31.362Z,7.80
2018-11-21T08:25:40.203Z,6.20
2018-11-21T08:28:31.500Z,7.20
2018-11-21T08:31:21.731Z,6.77
2018-11-21T08:34:11.952Z,6.30
2018-11-21T08:37:02.610Z,7.30
2018-11-21T08:39:52.915Z,5.77
2018-11-21T08:42:42.080Z,6.77
2018-11-21T08:53:43.212Z,11.50
2018-11-21T08:56:33.802Z,8.63
2018-11-21T08:59:04.408Z,7.33
2018-11-21T09:01:55.590Z,7.80
2018-11-21T09:04:46.447Z,10.13
2018-11-21T09:10:42.761Z,7.13
2018-11-21T09:16:14.604Z,6.00
2018-11-21T09:25:14.488Z,7.17
2018-11-21T09:28:16.499Z,7.73
2018-11-21T09:30:48.632Z,6.17
2018-11-21T09:33:39.665Z,6.70
2018-11-21T09:36:30.676Z,5.80
2018-11-21T09:39:02.134Z,6.17
2018-11-21T09:57:34.019Z,7.27
2018-11-21T10:00:23.919Z,5.20
2018-11-21T10:03:15.822Z,4.93
2018-11-21T10:06:29.272Z,6.50
2018-11-21T10:09:24.701Z,4.50
2018-11-21T10:11:55.658Z,5.10
2018-11-21T10:14:45.875Z,5.37
2018-11-21T10:17:36.085Z,5.70
2018-11-21T10:20:26.279Z,5.40
2018-11-21T10:23:16.531Z,5.77
2018-11-21T10:26:07.348Z,5.90
2018-11-21T10:28:57.850Z,5.00
2018-11-21T10:31:48.057Z,4.87
2018-11-21T10:34:18.700Z,5.90
2018-11-21T10:37:08.892Z,5.30
2018-11-21T10:39:59.191Z,5.53
2018-11-21T10:42:49.435Z,4.47
2018-11-21T10:45:58.557Z,4.37
2018-11-21T10:48:48.766Z,3.80
2018-11-21T10:51:39.019Z,4.73
2018-11-21T10:54:29.284Z,4.97
2018-11-21T10:57:19.544Z,4.37
2018-11-21T11:03:11.546Z,4.13
2018-11-21T11:06:20.414Z,4.10
2018-11-21T11:09:30.840Z,4.83
2018-11-21T11:12:39.753Z,5.20
2018-11-21T11:15:48.622Z,4.67
2018-11-21T11:18:57.480Z,4.53
2018-11-21T11:24:48.007Z,5.70
2018-11-21T11:30:21.840Z,5.90
2018-11-21T11:33:30.667Z,5.23
2018-11-21T11:36:39.540Z,6.00
2018-11-21T11:42:31.688Z,5.93
2018-11-21T11:51:05.779Z,6.00
2018-11-21T11:53:55.313Z,6.33
2018-11-21T11:57:04.177Z,6.30
2018-11-21T11:59:53.377Z,6.07
2018-11-21T12:03:02.251Z,6.90
2018-11-21T12:06:05.911Z,7.07
2018-11-21T12:09:14.764Z,6.70
2018-11-21T12:12:24.500Z,6.80
2018-11-21T12:15:33.336Z,6.47
2018-11-21T12:18:42.195Z,7.73
2018-11-21T12:21:51.086Z,7.90
2018-11-21T12:27:39.222Z,12.97
2018-11-21T12:30:48.057Z,19.83
2018-11-21T12:37:03.597Z,14.97
2018-11-21T12:40:12.481Z,16.40
2018-11-21T12:43:21.357Z,10.40
2018-11-21T12:46:30.216Z,12.63
2018-11-21T12:49:41.816Z,13.90
2018-11-21T12:52:50.683Z,10.80
2018-11-21T12:55:59.538Z,12.50
2018-11-21T12:59:08.398Z,12.37
2018-11-21T13:02:36.418Z,11.43
2018-11-21T13:05:26.003Z,12.40
2018-11-21T13:08:16.077Z,10.80
2018-11-21T13:11:25.102Z,12.37
2018-11-21T13:14:14.668Z,11.03
2018-11-21T13:20:05.278Z,14.23
2018-11-21T13:23:14.202Z,12.93
2018-11-21T13:26:23.086Z,12.50
2018-11-21T13:29:31.955Z,13.57
2018-11-21T13:32:40.820Z,12.40
2018-11-21T13:35:49.673Z,11.50
2018-11-21T13:38:58.764Z,14.03
2018-11-21T13:41:49.305Z,14.33
2018-11-21T13:44:58.223Z,14.50
2018-11-21T13:48:07.073Z,14.30
2018-11-21T13:51:15.967Z,12.43
2018-11-21T13:54:25.317Z,17.60
2018-11-21T13:56:55.889Z,19.30
2018-11-21T13:59:46.147Z,23.10
2018-11-21T14:02:36.410Z,38.07
2018-11-21T14:05:26.637Z,23.97
2018-11-21T14:08:16.898Z,22.00
2018-11-21T14:11:26.495Z,18.90
2018-11-21T14:14:19.338Z,14.40
2018-11-21T14:17:09.591Z,14.10
2018-11-21T14:29:10.848Z,14.70
2018-11-21T14:32:01.520Z,17.10
2018-11-21T14:34:32.008Z,14.00
2018-11-21T14:37:22.256Z,14.87
2018-11-21T14:40:32.550Z,15.10
2018-11-21T14:43:04.929Z,13.30
2018-11-21T14:45:55.212Z,15.30
2018-11-21T14:48:45.876Z,15.03
2018-11-21T14:51:36.565Z,17.70
2018-11-21T14:54:26.857Z,17.07
2018-11-21T15:00:00.451Z,16.90
2018-11-21T15:02:50.709Z,17.17
2018-11-21T15:05:34.233Z,20.77
2018-11-21T15:08:11.560Z,17.17
2018-11-21T15:11:01.936Z,16.80
2018-11-21T15:16:36.972Z,16.30
2018-11-21T15:19:26.397Z,16.53
2018-11-21T15:22:16.641Z,15.43
2018-11-21T15:25:26.438Z,17.17
2018-11-21T15:28:16.664Z,18.30
2018-11-21T15:33:51.104Z,16.67
2018-11-21T15:36:41.337Z,16.40
2018-11-21T15:39:50.463Z,17.03
2018-11-21T15:42:52.304Z,17.17
2018-11-21T15:45:25.116Z,15.63
2018-11-21T15:50:56.830Z,16.30
2018-11-21T15:53:47.546Z,14.03
2018-11-21T15:56:37.867Z,16.03
2018-11-21T15:59:28.068Z,16.30
2018-11-21T16:05:21.181Z,16.60
2018-11-21T16:08:11.420Z,16.37
2018-11-21T16:11:01.653Z,18.20
2018-11-21T16:13:32.254Z,18.30
2018-11-21T16:16:22.484Z,17.80
2018-11-21T16:19:31.369Z,15.80
2018-11-21T16:22:21.594Z,17.73
2018-11-21T16:25:31.142Z,20.20
2018-11-21T16:28:21.415Z,18.40
2018-11-21T16:33:54.168Z,17.10
2018-11-21T16:36:44.404Z,15.90
2018-11-21T16:44:43.545Z,17.03
2018-11-21T16:47:33.783Z,16.13
2018-11-21T16:50:24.016Z,17.80
2018-11-21T16:53:14.256Z,17.37
2018-11-21T16:56:04.491Z,16.03
2018-11-21T16:58:54.743Z,15.83
2018-11-21T17:01:44.977Z,13.10
2018-11-21T17:04:35.223Z,15.83
2018-11-21T17:07:26.074Z,16.53
2018-11-21T17:09:56.086Z,16.10
2018-11-21T17:12:26.651Z,14.60
2018-11-21T17:15:35.526Z,15.10
2018-11-21T17:18:25.776Z,14.67
2018-11-21T17:20:57.321Z,15.80
2018-11-21T17:26:30.678Z,13.10
2018-11-21T17:29:54.789Z,12.73
2018-11-21T17:32:26.673Z,13.53
2018-11-21T17:41:01.080Z,24.37
2018-11-21T17:43:31.818Z,44.27
2018-11-21T17:46:22.213Z,35.93
2018-11-21T17:49:12.425Z,36.87
2018-11-21T17:52:02.694Z,47.23
2018-11-21T17:57:35.571Z,45.27
2018-11-21T18:00:27.241Z,39.47
2018-11-21T18:03:36.403Z,70.63
2018-11-21T18:06:26.622Z,40.50
2018-11-21T18:09:19.516Z,37.13
2018-11-21T18:12:09.742Z,33.27
2018-11-21T18:15:00.033Z,36.73
2018-11-21T18:17:50.650Z,34.77
2018-11-21T18:23:23.847Z,17.63
2018-11-21T18:26:32.673Z,19.57
2018-11-21T18:29:41.809Z,15.33
2018-11-21T18:32:32.062Z,15.90
2018-11-21T18:38:03.996Z,15.73
2018-11-21T18:40:34.580Z,14.73
2018-11-21T18:43:12.529Z,14.60
2018-11-21T18:46:02.785Z,14.27
2018-11-21T18:48:53.406Z,15.03
2018-11-21T18:52:02.388Z,15.20
2018-11-21T18:58:13.142Z,14.47
2018-11-21T19:01:23.114Z,16.03
2018-11-21T19:04:13.294Z,14.13
2018-11-21T19:07:03.591Z,16.33
2018-11-21T19:09:53.880Z,16.73
2018-11-21T19:15:27.079Z,14.50
2018-11-21T19:18:17.328Z,13.50
2018-11-21T19:21:07.664Z,18.00
2018-11-21T19:23:38.228Z,15.60
2018-11-21T19:26:28.522Z,31.73
2018-11-21T19:29:11.854Z,30.10
2018-11-21T19:35:06.841Z,31.70
2018-11-21T19:37:57.103Z,17.00
2018-11-21T19:40:47.372Z,21.20
2018-11-21T19:46:20.965Z,19.83
2018-11-21T19:48:51.561Z,21.50
2018-11-21T19:51:41.802Z,25.40
2018-11-21T19:54:32.062Z,20.80
2018-11-21T20:00:05.876Z,20.10
2018-11-21T20:08:23.265Z,19.00
2018-11-21T20:11:13.709Z,18.43
2018-11-21T20:14:03.939Z,18.67
2018-11-21T20:16:54.177Z,19.60
2018-11-21T20:19:44.413Z,18.20
2018-11-21T20:22:14.989Z,19.57
2018-11-21T20:24:45.565Z,18.37
2018-11-21T20:27:16.475Z,17.87
2018-11-21T20:30:05.904Z,16.93
2018-11-21T20:32:56.152Z,21.63
2018-11-21T20:35:46.378Z,24.87
2018-11-21T20:38:36.620Z,39.87
2018-11-21T20:44:28.598Z,39.73
2018-11-21T20:47:19.017Z,23.40
2018-11-21T20:50:09.446Z,22.00
2018-11-21T20:52:59.705Z,20.93
2018-11-21T20:55:49.958Z,20.93
2018-11-21T20:58:40.261Z,22.50
2018-11-21T21:01:49.853Z,16.70
2018-11-21T21:04:40.083Z,18.20
2018-11-21T21:10:15.406Z,23.13
2018-11-21T21:13:05.710Z,22.57
2018-11-21T21:15:56.471Z,18.47
2018-11-21T21:18:46.709Z,18.10
2018-11-21T21:27:02.177Z,17.03
2018-11-21T21:29:32.757Z,16.30
2018-11-21T21:32:22.984Z,17.30
2018-11-21T21:34:53.611Z,19.80
2018-11-21T21:37:43.889Z,16.97
2018-11-21T21:40:34.173Z,15.80
2018-11-21T21:43:24.416Z,15.77
2018-11-21T21:49:39.237Z,17.33
2018-11-21T21:52:09.826Z,15.50
2018-11-21T21:54:40.410Z,15.80
2018-11-21T21:57:11.023Z,16.37
2018-11-21T21:59:41.605Z,16.60
2018-11-21T22:02:31.828Z,16.23
2018-11-21T22:08:04.737Z,14.23
2018-11-21T22:13:38.928Z,14.27
2018-11-21T22:16:29.156Z,13.77
2018-11-21T22:19:19.821Z,16.20
2018-11-21T22:28:06.048Z,14.70
2018-11-21T22:30:56.267Z,17.90
2018-11-21T22:33:46.542Z,15.20
2018-11-21T22:36:37.033Z,18.20
2018-11-21T22:39:27.319Z,16.73
2018-11-21T22:45:31.159Z,16.27
2018-11-21T22:48:21.395Z,16.27
2018-11-21T22:51:11.683Z,17.63
2018-11-21T22:54:01.976Z,16.70
2018-11-21T22:59:35.991Z,16.20
2018-11-21T23:02:44.840Z,15.20
2018-11-21T23:05:37.705Z,17.50
2018-11-21T23:08:25.428Z,15.80
2018-11-21T23:11:15.680Z,15.97
2018-11-21T23:14:06.066Z,17.20
2018-11-21T23:16:56.456Z,16.67
2018-11-21T23:19:46.722Z,16.10
2018-11-21T23:22:36.947Z,15.70
2018-11-21T23:25:27.218Z,16.80
2018-11-21T23:31:00.285Z,16.10
2018-11-21T23:33:51.436Z,15.77
2018-11-21T23:36:41.664Z,16.00
2018-11-21T23:39:12.272Z,16.43
2018-11-21T23:42:02.490Z,15.70
2018-11-21T23:44:52.683Z,16.17
2018-11-21T23:47:43.377Z,14.60
2018-11-21T23:50:52.703Z,14.80
